Station: Sunshine Coast Airport  

  Atmospheric Gas Attenuation - ITU Rec 676-11   ----------------- dB/100km -----------------
Date Time Temp RH % AH g/m3 Dew Point Wind Direction Speed kph Gust kph Barometer mB Rainfall Since 9am 24GHz 47GHz 76GHz 122GHz 134GHz 241GHz
04/09 14:10 25.4 64 15.07 18.1 24 32 1017.3 0 32.6 33.0 59.5 157.0 166.7 578.6
04/09 14:00 25.7 60 14.36 17.4 24 30 1017.3 0 31.1 31.6 56.3 148.5 156.4 542.6
04/09 13:50 25.5 64 15.15 18.2 22 30 1017.5 0 32.7 33.1 59.7 157.7 167.6 581.8
04/09 13:40 25.3 67 15.69 18.7 24 32 1017.7 0 33.9 34.1 62.2 164.3 175.7 609.8
04/09 13:30 24.7 67 15.16 18.2 24 30 1017.6 0 32.8 33.4 60.4 159.5 169.6 588.4
04/09 13:20 24.9 67 15.34 18.4 24 30 1017.9 0 33.2 33.6 61.0 161.1 171.7 595.8
04/09 13:10 25.1 64 14.82 17.8 24 33 1017.9 0 32.1 32.7 58.7 154.8 164.0 569.0
04/09 13:00 25.8 59 14.2 17.2 26 33 1017.9 0 30.7 31.4 55.6 146.6 154.1 534.6
04/09 12:50 26.9 52 13.31 16.2 26 32 1018.1 0 28.8 29.6 51.3 135.1 140.3 486.6
04/09 12:40 27.6 50 13.3 16.2 24 28 1018.3 0 28.7 29.3 50.8 133.9 138.9 482.0
04/09 12:30 27.4 51 13.42 16.4 20 28 1018.4 0 29.0 29.6 51.4 135.5 140.9 488.6
04/09 12:20 27.3 52 13.61 16.6 22 26 1018.6 0 29.4 29.9 52.2 137.7 143.5 497.9
04/09 12:10 27.9 51 13.79 16.8 20 22 1018.7 0 29.7 30.0 52.5 138.5 144.7 502.2
04/09 12:00 27.6 51 13.57 16.6 20 24 1018.7 0 29.3 29.8 51.9 136.7 142.5 494.2
04/09 11:50 27.3 53 13.87 16.9 20 26 1019 0 29.9 30.3 53.3 140.5 146.9 509.8
04/09 11:40 25.6 60 14.28 17.3 20 24 1019.2 0 30.9 31.6 56.1 148.0 155.7 540.3
04/09 11:30 26.1 61 14.93 18 19 24 1019.3 0 32.2 32.5 58.4 154.3 163.5 567.6
04/09 11:20 26.3 57 14.11 17.1 17 20 1019.6 0 30.5 31.1 54.9 144.9 152.1 527.7
04/09 11:10 26 60 14.61 17.6 15 17 1019.7 0 31.6 32.0 57.2 151.0 159.4 553.3
04/09 11:00 26.8 58 14.76 17.8 15 19 1019.8 0 31.8 32.0 57.2 151.1 159.8 554.7
04/09 10:50 26.4 59 14.69 17.7 17 20 1020.1 0 31.7 32.1 57.3 151.1 159.7 554.4
04/09 10:40 26.5 55 13.77 16.7 17 20 1020.2 0 29.8 30.5 53.5 141.0 147.3 510.9
04/09 10:30 26.3 55 13.62 16.5 9 19 1020.2 0 29.5 30.3 53.0 139.7 145.7 505.3
04/09 10:20 27.9 41 11.09 13.4 11 15 1020.4 0 24.1 25.9 42.4 111.5 111.4 385.7
04/09 10:10 27.8 45 12.1 14.8 11 17 1020.6 0 26.2 27.5 46.2 121.6 123.8 429.0
04/09 10:00 27.5 47 12.44 15.2 11 17 1020.4 0 26.9 28.1 47.6 125.5 128.5 445.3
04/09 09:50 27.1 47 12.16 14.8 13 17 1020.6 0 26.4 27.8 46.8 123.3 125.6 435.4
04/09 09:40 26.5 48 12.02 14.6 11 17 1020.7 0 26.1 27.8 46.6 122.8 124.9 432.6
04/09 09:30 26 48 11.69 14.1 9 15 1020.7 0 25.4 27.4 45.7 120.2 121.5 420.9
04/09 09:20 25.3 49 11.47 13.8 11 15 1020.8 0 25.0 27.3 45.2 119.0 119.9 415.0
04/09 09:10 24.9 52 11.9 14.4 11 15 1020.8 0 25.9 28.1 47.1 124.0 125.9 436.1
04/09 09:00 24.7 53 12 14.5 11 15 1020.8 0 26.2 28.3 47.6 125.4 127.5 441.6
04/09 08:50 24.2 55 12.1 14.6 11 15 1020.9 0 26.4 28.6 48.3 127.2 129.6 449.0
04/09 08:40 23.7 55 11.76 14.1 13 17 1020.9 0 25.7 28.2 47.3 124.5 126.1 436.4
04/09 08:30 23.3 57 11.92 14.3 13 19 1020.8 0 26.1 28.6 48.1 126.8 128.8 445.9
04/09 08:20 22.3 59 11.65 13.9 17 20 1020.9 0 25.6 28.5 47.7 125.5 126.9 439.2
04/09 08:10 22 62 12.03 14.4 17 24 1020.8 0 26.4 29.2 49.4 130.0 132.4 458.4
04/09 08:00 21.5 64 12.07 14.4 19 24 1020.5 0 26.5 29.4 49.9 131.3 133.8 463.1
04/09 07:50 20.7 66 11.88 14.1 19 24 1020.5 0 26.2 29.4 49.6 130.5 132.6 458.9
04/09 07:40 20.1 69 11.99 14.2 11 19 1020.4 0 26.4 29.8 50.4 132.7 135.1 467.6
04/09 07:30 19.3 70 11.61 13.7 9 13 1020.4 0 25.7 29.4 49.3 129.9 131.3 454.3
04/09 07:20 18.8 74 11.92 14.1 9 11 1020.3 0 26.4 30.1 51.0 134.2 136.4 472.1
04/09 07:10 18.1 76 11.74 13.8 9 13 1020 0 26.0 30.0 50.6 133.3 135.2 467.5
04/09 07:00 17.2 82 12.01 14.1 9 13 1019.9 0 26.7 30.8 52.4 137.9 140.6 486.2
04/09 06:50 16.5 83 11.65 13.6 11 17 1020 0 25.9 30.4 51.3 135.0 136.7 472.8
04/09 06:40 15.8 86 11.58 13.5 15 17 1019.9 0 25.8 30.5 51.4 135.4 137.0 473.6
04/09 06:30 14.9 87 11.09 12.8 15 17 1019.9 0 24.9 30.0 49.9 131.3 131.6 454.5
04/09 06:20 14.7 86 10.83 12.4 13 17 1020 0 24.3 29.6 48.9 128.7 128.2 442.8
04/09 06:10 14.6 88 11.01 12.6 13 17 1019.9 0 24.7 30.0 49.7 130.9 130.9 452.3
04/09 06:00 14 87 10.49 11.9 15 17 1019.7 0 23.6 29.2 47.9 125.9 124.5 429.9
04/09 05:50 14 85 10.25 11.5 13 15 1019.8 0 23.1 28.8 46.8 123.1 121.2 418.1
04/09 05:40 14.7 84 10.58 12 9 13 1019.7 0 23.8 29.2 47.8 125.8 124.7 430.4
04/09 05:30 15.2 87 11.29 13.1 2 7 1019.6 0 25.3 30.2 50.6 133.1 133.9 462.6
04/09 05:20 14.6 86 10.76 12.3 0 0 1019.4 0 24.2 29.5 48.6 127.9 127.3 439.7
04/09 05:10 14.4 85 10.51 11.9 0 0 1019.4 0 23.6 29.1 47.7 125.4 124.1 428.5
04/09 05:00 14.8 84 10.64 12.1 7 11 1019.1 0 23.9 29.2 48.0 126.2 125.3 432.6
04/09 04:50 14.8 83 10.51 11.9 11 13 1019.1 0 23.6 29.0 47.4 124.7 123.5 426.2
04/09 04:40 15.1 82 10.58 12.1 9 13 1019.1 0 23.7 29.0 47.5 125.0 124.0 428.0
04/09 04:30 15.4 81 10.64 12.2 9 11 1019 0 23.9 29.0 47.6 125.2 124.3 429.2
04/09 04:20 15.6 80 10.64 12.2 4 9 1019 0 23.8 28.9 47.5 124.9 124.0 428.1
04/09 04:10 16 78 10.63 12.2 2 7 1019 0 23.8 28.8 47.2 124.1 123.2 425.4
04/09 04:00 16 77 10.49 12 0 6 1018.8 0 23.5 28.6 46.6 122.6 121.2 418.6
04/09 03:50 16.3 77 10.68 12.3 2 7 1018.8 0 23.9 28.8 47.2 124.2 123.4 426.1
04/09 03:40 16.4 77 10.75 12.4 9 13 1018.8 0 24.0 28.9 47.5 124.8 124.2 429.0
04/09 03:30 16.1 78 10.69 12.3 11 15 1018.7 0 23.9 28.9 47.4 124.6 123.8 427.7
04/09 03:20 16.4 76 10.61 12.2 11 11 1018.8 0 23.7 28.6 46.9 123.3 122.3 422.2
04/09 03:10 16.4 74 10.33 11.8 9 9 1018.9 0 23.1 28.2 45.7 120.2 118.4 408.9
04/09 03:00 16.7 72 10.23 11.6 9 11 1018.8 0 22.9 27.9 45.1 118.6 116.6 402.6
04/09 02:50 17 72 10.42 11.9 7 9 1018.9 0 23.3 28.1 45.7 120.2 118.7 410.0
04/09 02:40 17.2 71 10.4 11.9 9 17 1019 0 23.2 28.0 45.5 119.7 118.2 408.1
04/09 02:30 17.7 70 10.56 12.2 13 19 1018.8 0 23.6 28.1 45.9 120.7 119.5 412.9
04/09 02:20 17.1 73 10.63 12.2 13 15 1018.9 0 23.7 28.4 46.5 122.4 121.4 419.4
04/09 02:10 17.1 74 10.77 12.4 11 17 1019 0 24.0 28.7 47.1 124.0 123.4 426.1
04/09 02:00 17.2 74 10.84 12.5 13 19 1018.9 0 24.2 28.8 47.4 124.6 124.1 428.9
04/09 01:50 17.2 75 10.98 12.7 15 17 1019 0 24.5 29.0 47.9 126.1 126.1 435.6
04/09 01:40 16.9 74 10.64 12.2 13 20 1019.2 0 23.8 28.5 46.7 122.9 121.9 421.1
04/09 01:30 17.1 72 10.48 12 13 17 1019.1 0 23.4 28.2 45.9 120.8 119.4 412.4
04/09 01:20 17.2 72 10.54 12.1 13 17 1019.2 0 23.5 28.3 46.1 121.3 120.1 414.7
04/09 01:10 17.3 73 10.75 12.4 15 19 1019.3 0 24.0 28.6 46.9 123.5 122.8 424.2
04/09 01:00 17.7 71 10.71 12.4 15 19 1019.2 0 23.9 28.4 46.5 122.4 121.6 420.1
04/09 00:50 17.1 73 10.63 12.2 13 17 1019.3 0 23.7 28.4 46.6 122.4 121.5 419.6
04/09 00:40 17 72 10.42 11.9 13 17 1019.2 0 23.3 28.1 45.7 120.3 118.8 410.1
04/09 00:30 17.6 70 10.5 12.1 11 17 1019.1 0 23.4 28.1 45.7 120.2 118.9 410.7
04/09 00:20 17.5 73 10.88 12.6 13 17 1019.3 0 24.2 28.7 47.4 124.6 124.2 429.3
04/09 00:10 17.7 70 10.56 12.2 13 17 1019.4 0 23.6 28.1 45.9 120.8 119.6 413.1
04/09 00:00 18.5 69 10.92 12.7 15 22 1019.2 0 24.3 28.5 46.9 123.4 123.2 425.7
03/09 23:50 17.3 74 10.9 12.6 15 20 1019.2 0 24.3 28.8 47.6 125.1 124.8 431.3
03/09 23:40 17.5 73 10.88 12.6 15 19 1019.2 0 24.2 28.7 47.4 124.6 124.2 429.3
03/09 23:30 17.8 71 10.78 12.5 15 19 1019.1 0 24.0 28.5 46.8 123.0 122.4 422.8
03/09 23:20 18 71 10.9 12.7 13 19 1019.3 0 24.3 28.6 47.1 124.0 123.7 427.5
03/09 23:10 18.1 72 11.12 13 15 19 1019.4 0 24.7 28.9 48.0 126.3 126.5 437.4
03/09 23:00 17.8 73 11.08 12.9 17 20 1019.2 0 24.7 29.0 48.0 126.3 126.5 437.1
03/09 22:50 17.5 75 11.18 13 15 19 1019.3 0 24.9 29.2 48.6 127.9 128.4 443.7
03/09 22:40 17.2 76 11.13 12.9 13 17 1019.4 0 24.8 29.3 48.6 127.9 128.2 443.0
03/09 22:30 17.1 77 11.21 13 13 15 1019.3 0 25.0 29.4 49.0 128.9 129.4 447.4
03/09 22:20 17.2 77 11.28 13.1 13 17 1019.4 0 25.1 29.5 49.2 129.6 130.3 450.3
03/09 22:10 17.1 77 11.21 13 13 17 1019.5 0 25.0 29.4 49.0 128.9 129.5 447.5
03/09 22:00 17.5 76 11.33 13.2 13 15 1019.4 0 25.2 29.5 49.2 129.6 130.4 450.9
03/09 21:50 18.1 74 11.43 13.4 11 17 1019.5 0 25.4 29.5 49.3 129.8 130.8 452.3
03/09 21:40 18.4 74 11.64 13.7 11 17 1019.5 0 25.8 29.7 50.0 131.6 133.2 460.7

Last Refresh: 04-Sep-2026 13:53:34

Bureau of Meteorology